Thies, Senegal
Current Conditions -  °F | °C
As of 8:00 AM on Monday 20 Oct 2014 (Local Time) from GOOY Reporting Station
Few Clouds Few Clouds  
Wind Chill: 79°   Ceiling: Unl
Heat Index: 82°   Visibility: 6mi
Dew Point: 75°   Wind: 2mph
Humidity: 89%   Direction: 330°NNW
Pressure: 29.88"   Gusts: NA
Location:  14.81°N, 16.93°W
Report Text: GOOY 200800Z 33002KT 9999 FEW008 26/24 Q1012 NOSIG
Loading
Personal Weather Stations






























Interactive Weather Map
Tropical Storm Tracking
New forecast layout! Learn more

10-Day Weather Forecast

Advertisements
Track Severe Weather on mobile